createdAt,value
2019-02-27T00:01:57.370Z,7.40
2019-02-27T00:04:28.508Z,7.30
2019-02-27T00:06:59.867Z,7.30
2019-02-27T00:09:32.689Z,7.20
2019-02-27T00:12:02.365Z,7.20
2019-02-27T00:14:33.923Z,7.10
2019-02-27T00:17:04.498Z,7.10
2019-02-27T00:19:36.078Z,7.00
2019-02-27T00:22:07.359Z,7.00
2019-02-27T00:24:38.310Z,7.00
2019-02-27T00:27:09.190Z,7.00
2019-02-27T00:29:39.589Z,7.00
2019-02-27T00:32:10.524Z,6.90
2019-02-27T00:34:41.866Z,6.90
2019-02-27T00:37:12.422Z,6.90
2019-02-27T00:39:43.428Z,6.90
2019-02-27T00:42:16.983Z,6.90
2019-02-27T00:44:47.686Z,6.80
2019-02-27T00:47:20.204Z,6.80
2019-02-27T00:49:50.812Z,6.90
2019-02-27T00:52:21.141Z,6.80
2019-02-27T00:54:52.022Z,6.80
2019-02-27T00:57:22.549Z,6.70
2019-02-27T00:59:52.695Z,6.60
2019-02-27T01:02:23.278Z,6.60
2019-02-27T01:04:54.173Z,6.50
2019-02-27T01:07:25.004Z,6.40
2019-02-27T01:09:56.110Z,6.30
2019-02-27T01:12:26.978Z,6.20
2019-02-27T01:14:58.199Z,6.10
2019-02-27T01:17:28.484Z,6.10
2019-02-27T01:19:58.802Z,6.10
2019-02-27T01:22:30.002Z,6.10
2019-02-27T01:25:00.744Z,6.10
2019-02-27T01:27:31.325Z,6.20
2019-02-27T01:30:01.877Z,6.10
2019-02-27T01:32:32.680Z,6.00
2019-02-27T01:35:03.697Z,6.00
2019-02-27T01:37:34.154Z,6.00
2019-02-27T01:40:05.179Z,6.00
2019-02-27T01:42:36.048Z,6.00
2019-02-27T01:45:09.717Z,5.90
2019-02-27T01:47:40.659Z,5.90
2019-02-27T01:50:32.842Z,5.90
2019-02-27T01:53:07.046Z,5.90
2019-02-27T01:55:37.614Z,6.00
2019-02-27T01:58:09.624Z,5.90
2019-02-27T02:00:42.204Z,5.90
2019-02-27T02:03:14.292Z,5.90
2019-02-27T02:05:46.138Z,5.90
2019-02-27T02:08:17.290Z,5.90
2019-02-27T02:10:47.406Z,5.80
2019-02-27T02:13:48.338Z,5.80
2019-02-27T02:16:44.598Z,5.80
2019-02-27T02:19:53.994Z,5.80
2019-02-27T02:23:13.943Z,5.80
2019-02-27T02:25:54.070Z,5.80
2019-02-27T02:28:41.934Z,5.80
2019-02-27T02:31:52.921Z,5.70
2019-02-27T02:34:44.753Z,5.70
2019-02-27T02:37:46.952Z,5.60
2019-02-27T02:41:08.482Z,5.60
2019-02-27T02:44:20.603Z,5.50
2019-02-27T02:47:31.290Z,5.50
2019-02-27T02:51:03.723Z,5.40
2019-02-27T02:54:00.685Z,5.30
2019-02-27T02:57:06.037Z,5.20
2019-02-27T02:59:51.521Z,5.10
2019-02-27T03:03:02.223Z,5.10
2019-02-27T03:06:11.028Z,5.10
2019-02-27T03:08:55.393Z,5.00
2019-02-27T03:11:43.638Z,5.00
2019-02-27T03:14:30.840Z,5.00
2019-02-27T03:17:29.920Z,5.00
2019-02-27T03:20:30.955Z,5.00
2019-02-27T03:23:26.070Z,4.90
2019-02-27T03:26:26.312Z,4.80
2019-02-27T03:29:15.721Z,4.80
2019-02-27T03:32:08.306Z,4.90
2019-02-27T03:35:27.931Z,4.90
2019-02-27T03:38:23.834Z,4.90
2019-02-27T03:41:29.958Z,4.90
2019-02-27T03:44:24.221Z,4.80
2019-02-27T03:47:15.645Z,4.70
2019-02-27T03:50:16.119Z,4.60
2019-02-27T03:52:58.109Z,4.50
2019-02-27T03:55:58.265Z,4.50
2019-02-27T03:58:47.722Z,4.50
2019-02-27T04:01:36.073Z,4.50
2019-02-27T04:04:30.549Z,4.40
2019-02-27T04:07:31.838Z,4.40
2019-02-27T04:10:02.271Z,4.30
2019-02-27T04:12:33.230Z,4.40
2019-02-27T04:15:04.661Z,4.40
2019-02-27T04:17:33.751Z,4.50
2019-02-27T04:20:05.258Z,4.50
2019-02-27T04:22:37.469Z,4.50
2019-02-27T04:25:08.409Z,4.40
2019-02-27T04:27:39.569Z,4.40
2019-02-27T04:30:14.736Z,4.40
2019-02-27T04:32:47.691Z,4.30
2019-02-27T04:35:16.667Z,4.30
2019-02-27T04:37:47.447Z,4.20
2019-02-27T04:40:17.926Z,4.20
2019-02-27T04:42:49.101Z,4.20
2019-02-27T04:45:20.080Z,4.30
2019-02-27T04:47:50.529Z,4.30
2019-02-27T04:50:21.542Z,4.40
2019-02-27T04:52:51.995Z,4.40
2019-02-27T04:55:23.023Z,4.30
2019-02-27T04:57:54.164Z,4.20
2019-02-27T05:00:26.359Z,4.20
2019-02-27T05:02:57.283Z,4.10
2019-02-27T05:05:28.022Z,4.10
2019-02-27T05:07:58.615Z,4.00
2019-02-27T05:10:29.314Z,4.00
2019-02-27T05:13:00.021Z,3.90
2019-02-27T05:15:30.560Z,3.90
2019-02-27T05:18:00.727Z,3.80
2019-02-27T05:20:32.813Z,3.80
2019-02-27T05:23:03.194Z,3.80
2019-02-27T05:25:33.670Z,3.70
2019-02-27T05:28:04.862Z,3.70
2019-02-27T05:30:35.618Z,3.70
2019-02-27T05:33:06.142Z,3.70
2019-02-27T05:35:37.101Z,3.60
2019-02-27T05:38:07.783Z,3.50
2019-02-27T05:40:38.973Z,3.50
2019-02-27T05:43:13.248Z,3.40
2019-02-27T05:45:42.502Z,3.40
2019-02-27T05:48:13.448Z,3.40
2019-02-27T05:50:44.453Z,3.30
2019-02-27T05:53:16.142Z,3.20
2019-02-27T05:55:47.046Z,3.20
2019-02-27T05:58:17.811Z,3.10
2019-02-27T06:00:48.564Z,3.10
2019-02-27T06:03:19.061Z,3.10
2019-02-27T06:05:51.420Z,3.00
2019-02-27T06:08:22.294Z,3.00
2019-02-27T06:10:56.008Z,3.10
2019-02-27T06:13:25.730Z,3.10
2019-02-27T06:15:56.686Z,3.10
2019-02-27T06:18:27.718Z,3.10
2019-02-27T06:20:59.198Z,3.10
2019-02-27T06:23:29.910Z,3.20
2019-02-27T06:26:00.834Z,3.20
2019-02-27T06:28:31.802Z,3.30
2019-02-27T06:31:02.723Z,3.30
2019-02-27T06:33:33.902Z,3.30
2019-02-27T06:36:05.360Z,3.20
2019-02-27T06:38:37.014Z,3.20
2019-02-27T06:41:07.962Z,3.20
2019-02-27T06:43:39.095Z,3.10
2019-02-27T06:46:09.345Z,3.20
2019-02-27T06:48:43.022Z,3.30
2019-02-27T06:51:12.954Z,3.40
2019-02-27T06:53:43.688Z,3.50
2019-02-27T06:56:14.638Z,3.50
2019-02-27T06:58:47.546Z,3.60
2019-02-27T07:01:17.552Z,3.60
2019-02-27T07:03:47.875Z,3.60
2019-02-27T07:06:21.369Z,3.60
2019-02-27T07:08:50.505Z,3.70
2019-02-27T07:11:21.316Z,3.70
2019-02-27T07:13:52.464Z,3.80
2019-02-27T07:16:23.746Z,3.90
2019-02-27T07:18:54.619Z,3.90
2019-02-27T07:21:25.465Z,4.00
2019-02-27T07:23:58.537Z,4.10
2019-02-27T07:26:29.635Z,4.50
2019-02-27T07:29:00.175Z,5.40
2019-02-27T07:31:31.109Z,6.60
2019-02-27T07:34:02.270Z,7.70
2019-02-27T07:36:32.667Z,8.70
2019-02-27T07:39:05.172Z,9.60
2019-02-27T07:41:36.328Z,10.20
2019-02-27T07:44:07.455Z,10.70
2019-02-27T07:46:37.982Z,11.00
2019-02-27T07:49:08.743Z,11.40
2019-02-27T07:51:39.891Z,11.90
2019-02-27T07:54:10.846Z,12.40
2019-02-27T07:56:40.957Z,12.90
2019-02-27T07:59:13.141Z,13.50
2019-02-27T08:01:45.095Z,14.00
2019-02-27T08:04:19.060Z,14.40
2019-02-27T08:06:48.203Z,14.60
2019-02-27T08:09:18.545Z,14.70
2019-02-27T08:11:49.237Z,14.90
2019-02-27T08:14:20.401Z,15.40
2019-02-27T08:16:51.170Z,15.90
2019-02-27T08:19:22.542Z,16.40
2019-02-27T08:21:52.628Z,16.90
2019-02-27T08:24:24.849Z,17.40
2019-02-27T08:26:55.903Z,18.00
2019-02-27T08:29:26.536Z,18.30
2019-02-27T08:32:01.009Z,18.30
2019-02-27T08:34:29.197Z,18.10
2019-02-27T08:37:00.359Z,18.00
2019-02-27T08:39:31.304Z,18.10
2019-02-27T08:42:03.576Z,18.50
2019-02-27T08:44:34.409Z,18.90
2019-02-27T08:47:07.744Z,19.60
2019-02-27T08:49:37.746Z,19.90
2019-02-27T08:52:09.099Z,20.00
2019-02-27T08:54:39.548Z,20.10
2019-02-27T08:57:11.891Z,20.10
2019-02-27T08:59:42.369Z,20.10
2019-02-27T09:02:12.258Z,20.20
2019-02-27T09:04:45.562Z,20.30
2019-02-27T09:07:16.393Z,20.30
2019-02-27T09:09:51.175Z,20.80
2019-02-27T09:12:19.908Z,21.40
2019-02-27T09:14:50.441Z,22.10
2019-02-27T09:17:21.469Z,22.70
2019-02-27T09:19:51.930Z,23.40
2019-02-27T09:22:21.759Z,24.00
2019-02-27T09:24:52.568Z,24.40
2019-02-27T09:27:22.923Z,24.40
2019-02-27T09:29:54.844Z,24.00
2019-02-27T09:32:24.803Z,24.00
2019-02-27T09:34:57.037Z,24.10
2019-02-27T09:37:26.882Z,24.20
2019-02-27T09:39:56.942Z,24.20
2019-02-27T09:42:27.744Z,24.60
2019-02-27T09:44:57.904Z,25.00
2019-02-27T09:47:28.984Z,25.20
2019-02-27T09:49:59.846Z,25.60
2019-02-27T09:52:30.904Z,25.40
2019-02-27T09:55:01.022Z,25.40
2019-02-27T09:57:32.925Z,25.60
2019-02-27T10:00:07.268Z,25.60
2019-02-27T10:02:39.189Z,25.80
2019-02-27T10:05:09.730Z,26.60
2019-02-27T10:07:40.712Z,27.30
2019-02-27T10:10:11.104Z,27.70
2019-02-27T10:12:42.354Z,27.90
2019-02-27T10:15:13.869Z,28.20
2019-02-27T10:17:44.848Z,28.40
2019-02-27T10:20:15.998Z,28.50
2019-02-27T10:22:46.315Z,28.50
2019-02-27T10:25:17.264Z,28.70
2019-02-27T10:27:48.406Z,28.70
2019-02-27T10:30:20.098Z,28.70
2019-02-27T10:32:51.532Z,28.60
2019-02-27T10:35:22.996Z,28.40
2019-02-27T10:37:54.678Z,28.30
2019-02-27T10:40:25.376Z,28.20
2019-02-27T10:42:57.161Z,28.00
2019-02-27T10:45:27.918Z,27.50
2019-02-27T10:47:58.776Z,27.50
2019-02-27T10:50:30.787Z,28.20
2019-02-27T10:53:01.934Z,28.30
2019-02-27T10:55:32.512Z,28.80
2019-02-27T10:58:03.358Z,29.20
2019-02-27T11:00:36.201Z,29.30
2019-02-27T11:03:07.962Z,29.60
2019-02-27T11:05:38.628Z,30.10
2019-02-27T11:08:10.049Z,30.20
2019-02-27T11:10:40.306Z,30.30
2019-02-27T11:13:10.905Z,30.30
2019-02-27T11:15:43.158Z,30.50
2019-02-27T11:18:14.027Z,30.40
2019-02-27T11:20:44.981Z,30.30
2019-02-27T11:23:15.454Z,30.20
2019-02-27T11:25:46.876Z,30.50
2019-02-27T11:28:17.876Z,31.00
2019-02-27T11:30:48.753Z,31.70
2019-02-27T11:33:25.649Z,31.90
2019-02-27T11:35:53.770Z,31.90
2019-02-27T11:38:25.450Z,31.90
2019-02-27T11:40:56.610Z,32.00
2019-02-27T11:43:28.389Z,32.10
2019-02-27T11:45:59.515Z,32.50
2019-02-27T11:48:30.007Z,32.70
2019-02-27T11:51:00.604Z,32.50
2019-02-27T11:53:35.654Z,32.10
2019-02-27T11:56:04.124Z,32.00
2019-02-27T11:58:38.099Z,32.20
2019-02-27T12:01:08.785Z,32.50
2019-02-27T12:03:40.225Z,32.80
2019-02-27T12:06:10.757Z,33.00
2019-02-27T12:08:41.710Z,33.10
2019-02-27T12:11:14.270Z,33.10
2019-02-27T12:13:45.538Z,33.00
2019-02-27T12:16:18.343Z,32.80
2019-02-27T12:18:48.758Z,32.70
2019-02-27T12:21:19.900Z,32.40
2019-02-27T12:23:50.917Z,32.10
2019-02-27T12:26:21.791Z,32.20
2019-02-27T12:28:52.811Z,31.90
2019-02-27T12:31:24.493Z,32.10
2019-02-27T12:33:56.855Z,32.00
2019-02-27T12:36:27.819Z,32.00
2019-02-27T12:38:58.489Z,32.10
2019-02-27T12:41:29.950Z,32.00
2019-02-27T12:44:02.283Z,32.20
2019-02-27T12:46:34.168Z,32.30
2019-02-27T12:49:04.587Z,32.00
2019-02-27T12:51:35.264Z,31.70
2019-02-27T12:54:07.924Z,31.80
2019-02-27T12:56:41.542Z,32.30
2019-02-27T12:59:11.018Z,32.70
2019-02-27T13:01:41.267Z,33.20
2019-02-27T13:04:15.961Z,33.50
2019-02-27T13:06:45.079Z,33.20
2019-02-27T13:09:16.433Z,33.20
2019-02-27T13:11:47.574Z,33.50
2019-02-27T13:14:18.468Z,33.70
2019-02-27T13:16:50.210Z,33.90
2019-02-27T13:19:21.649Z,34.00
2019-02-27T13:21:52.281Z,34.10
2019-02-27T13:24:25.177Z,34.20
2019-02-27T13:26:55.900Z,34.10
2019-02-27T13:29:26.234Z,34.20
2019-02-27T13:31:56.753Z,34.50
2019-02-27T13:34:27.008Z,34.90
2019-02-27T13:36:57.149Z,34.80
2019-02-27T13:39:28.152Z,34.50
2019-02-27T13:41:59.302Z,34.40
2019-02-27T13:44:29.306Z,34.10
2019-02-27T13:47:00.306Z,34.20
2019-02-27T13:49:31.128Z,33.90
2019-02-27T13:52:01.982Z,34.00
2019-02-27T13:54:34.810Z,34.40
2019-02-27T13:57:04.377Z,34.30
2019-02-27T13:59:35.913Z,34.30
2019-02-27T14:02:07.467Z,34.50
2019-02-27T14:04:38.023Z,34.00
2019-02-27T14:07:09.152Z,33.50
2019-02-27T14:09:41.523Z,33.70
2019-02-27T14:12:13.079Z,33.70
2019-02-27T14:14:42.994Z,33.40
2019-02-27T14:17:13.893Z,32.90
2019-02-27T14:19:44.294Z,32.80
2019-02-27T14:22:14.496Z,33.20
2019-02-27T14:24:45.159Z,33.60
2019-02-27T14:27:15.315Z,33.50
2019-02-27T14:29:46.688Z,33.40
2019-02-27T14:32:17.224Z,33.00
2019-02-27T14:34:47.770Z,32.70
2019-02-27T14:37:19.392Z,32.80
2019-02-27T14:39:50.620Z,32.90
2019-02-27T14:42:21.357Z,32.90
2019-02-27T14:44:52.108Z,33.30
2019-02-27T14:47:22.606Z,33.80
2019-02-27T14:49:54.444Z,34.10
2019-02-27T14:52:25.386Z,34.40
2019-02-27T14:54:56.252Z,34.70
2019-02-27T14:57:26.791Z,34.60
2019-02-27T14:59:57.132Z,34.40
2019-02-27T15:02:27.443Z,34.00
2019-02-27T15:04:57.587Z,33.50
2019-02-27T15:07:28.511Z,33.00
2019-02-27T15:09:59.551Z,32.70
2019-02-27T15:12:30.492Z,32.20
2019-02-27T15:15:01.080Z,31.80
2019-02-27T15:17:32.758Z,31.40
2019-02-27T15:20:05.825Z,31.10
2019-02-27T15:22:37.641Z,31.00
2019-02-27T15:25:10.645Z,31.00
2019-02-27T15:27:41.393Z,30.60
2019-02-27T15:30:17.713Z,29.50
2019-02-27T15:32:48.579Z,28.50
2019-02-27T15:35:21.916Z,27.60
2019-02-27T15:37:53.555Z,26.50
2019-02-27T15:40:29.529Z,25.50
2019-02-27T15:42:59.378Z,24.70
2019-02-27T15:45:31.297Z,24.10
2019-02-27T15:48:06.445Z,23.60
2019-02-27T15:50:33.606Z,23.10
2019-02-27T15:53:06.389Z,22.80
2019-02-27T15:55:37.984Z,22.50
2019-02-27T15:58:09.091Z,22.20
2019-02-27T16:00:39.857Z,21.80
2019-02-27T16:03:11.765Z,21.50
2019-02-27T16:05:43.357Z,21.20
2019-02-27T16:08:15.311Z,21.00
2019-02-27T16:10:54.510Z,20.80
2019-02-27T16:13:18.391Z,20.60
2019-02-27T16:15:49.582Z,20.60
2019-02-27T16:18:20.479Z,20.50
2019-02-27T16:20:50.811Z,20.50
2019-02-27T16:23:21.797Z,20.50
2019-02-27T16:25:53.719Z,20.30
2019-02-27T16:28:24.707Z,20.20
2019-02-27T16:30:55.248Z,19.90
2019-02-27T16:33:28.539Z,19.80
2019-02-27T16:35:59.587Z,19.60
2019-02-27T16:38:31.521Z,19.50
2019-02-27T16:41:03.102Z,19.30
2019-02-27T16:43:33.415Z,19.30
2019-02-27T16:46:07.755Z,19.20
2019-02-27T16:48:37.170Z,19.20
2019-02-27T16:51:07.588Z,19.10
2019-02-27T16:53:37.623Z,19.00
2019-02-27T16:56:11.811Z,18.90
2019-02-27T16:58:40.948Z,18.70
2019-02-27T17:01:11.694Z,18.50
2019-02-27T17:03:45.062Z,18.30
2019-02-27T17:06:18.223Z,18.00
2019-02-27T17:08:48.003Z,17.90
2019-02-27T17:11:18.638Z,17.70
2019-02-27T17:13:50.357Z,17.60
2019-02-27T17:16:22.256Z,17.50
2019-02-27T17:18:52.737Z,17.30
2019-02-27T17:21:26.055Z,17.10
2019-02-27T17:23:55.709Z,16.80
2019-02-27T17:26:27.059Z,16.60
2019-02-27T17:28:57.794Z,16.40
2019-02-27T17:31:28.400Z,16.30
2019-02-27T17:33:58.860Z,16.10
2019-02-27T17:36:31.986Z,15.90
2019-02-27T17:39:02.717Z,15.60
2019-02-27T17:41:35.370Z,15.40
2019-02-27T17:44:06.318Z,15.20
2019-02-27T17:46:39.465Z,15.10
2019-02-27T17:49:10.463Z,15.00
2019-02-27T17:51:41.821Z,14.90
2019-02-27T17:54:12.941Z,14.80
2019-02-27T17:56:43.913Z,14.60
2019-02-27T17:59:14.647Z,14.50
2019-02-27T18:01:46.939Z,14.40
2019-02-27T18:04:17.763Z,14.30
2019-02-27T18:06:48.508Z,14.30
2019-02-27T18:09:19.642Z,14.20
2019-02-27T18:11:52.644Z,14.20
2019-02-27T18:14:22.362Z,14.10
2019-02-27T18:16:52.892Z,14.00
2019-02-27T18:19:23.782Z,13.90
2019-02-27T18:21:54.313Z,13.80
2019-02-27T18:24:25.510Z,13.80
2019-02-27T18:26:56.458Z,13.70
2019-02-27T18:29:26.921Z,13.70
2019-02-27T18:31:58.395Z,13.70
2019-02-27T18:34:31.131Z,13.70
2019-02-27T18:37:01.651Z,13.60
2019-02-27T18:39:36.387Z,13.60
2019-02-27T18:42:03.951Z,13.60
2019-02-27T18:44:35.111Z,13.60
2019-02-27T18:47:07.492Z,13.50
2019-02-27T18:49:38.323Z,13.30
2019-02-27T18:52:09.324Z,13.20
2019-02-27T18:54:40.255Z,13.10
2019-02-27T18:57:11.928Z,13.00
2019-02-27T18:59:42.953Z,12.90
2019-02-27T19:02:13.974Z,12.80
2019-02-27T19:04:45.109Z,12.70
2019-02-27T19:07:17.227Z,12.70
2019-02-27T19:09:47.717Z,12.70
2019-02-27T19:12:25.324Z,12.70
2019-02-27T19:14:52.775Z,12.70
2019-02-27T19:17:23.788Z,12.70
2019-02-27T19:19:56.147Z,12.60
2019-02-27T19:22:28.047Z,12.50
2019-02-27T19:25:00.187Z,12.40
2019-02-27T19:27:31.756Z,12.30
2019-02-27T19:30:06.237Z,12.20
2019-02-27T19:32:35.731Z,12.20
2019-02-27T19:35:07.285Z,12.10
2019-02-27T19:37:39.187Z,12.00
2019-02-27T19:40:12.857Z,11.90
2019-02-27T19:42:55.560Z,11.90
2019-02-27T19:45:26.399Z,11.90
2019-02-27T19:47:57.502Z,11.90
2019-02-27T19:50:28.517Z,11.80
2019-02-27T19:53:03.318Z,11.80
2019-02-27T19:55:31.917Z,11.70
2019-02-27T19:58:02.807Z,11.50
2019-02-27T20:00:35.129Z,11.50
2019-02-27T20:03:05.856Z,11.50
2019-02-27T20:05:36.767Z,11.50
2019-02-27T20:08:10.906Z,11.40
2019-02-27T20:10:44.009Z,11.20
2019-02-27T20:13:14.789Z,11.10
2019-02-27T20:15:46.513Z,10.90
2019-02-27T20:18:17.713Z,10.80
2019-02-27T20:20:49.053Z,10.70
2019-02-27T20:23:20.398Z,10.50
2019-02-27T20:25:50.458Z,10.40
2019-02-27T20:28:21.469Z,10.30
2019-02-27T20:30:53.638Z,10.40
2019-02-27T20:33:24.582Z,10.40
2019-02-27T20:35:55.621Z,10.40
2019-02-27T20:38:27.930Z,10.30
2019-02-27T20:40:58.239Z,10.20
2019-02-27T20:43:29.457Z,10.10
2019-02-27T20:46:00.735Z,10.10
2019-02-27T20:48:32.168Z,10.10
2019-02-27T20:51:06.057Z,10.00
2019-02-27T20:53:37.263Z,10.00
2019-02-27T20:56:08.200Z,9.90
2019-02-27T20:58:39.556Z,9.90
2019-02-27T21:01:13.635Z,9.80
2019-02-27T21:03:42.694Z,9.70
2019-02-27T21:06:13.703Z,9.70
2019-02-27T21:08:43.940Z,9.70
2019-02-27T21:11:13.801Z,9.60
2019-02-27T21:13:43.970Z,9.50
2019-02-27T21:16:14.356Z,9.40
2019-02-27T21:18:46.019Z,9.30
2019-02-27T21:21:19.852Z,9.20
2019-02-27T21:23:49.187Z,9.10
2019-02-27T21:26:22.643Z,9.00
2019-02-27T21:28:58.723Z,9.00
2019-02-27T21:31:27.580Z,9.00
2019-02-27T21:33:56.646Z,9.00
2019-02-27T21:36:27.605Z,8.90
2019-02-27T21:38:58.734Z,8.90
2019-02-27T21:41:29.882Z,8.80
2019-02-27T21:44:01.246Z,8.70
2019-02-27T21:46:33.102Z,8.70
2019-02-27T21:49:03.779Z,8.70
2019-02-27T21:51:34.439Z,8.70
2019-02-27T21:54:05.028Z,8.80
2019-02-27T21:56:35.662Z,8.70
2019-02-27T21:59:06.458Z,8.60
2019-02-27T22:01:38.056Z,8.50
2019-02-27T22:04:09.766Z,8.40
2019-02-27T22:06:41.150Z,8.30
2019-02-27T22:09:13.469Z,8.40
2019-02-27T22:11:44.652Z,8.50
2019-02-27T22:14:16.652Z,8.50
2019-02-27T22:16:47.510Z,8.60
2019-02-27T22:19:19.197Z,8.60
2019-02-27T22:21:50.708Z,8.70
2019-02-27T22:24:21.545Z,8.70
2019-02-27T22:26:52.390Z,8.60
2019-02-27T22:29:25.195Z,8.50
2019-02-27T22:31:56.332Z,8.40
2019-02-27T22:34:28.016Z,8.30
2019-02-27T22:36:58.736Z,8.10
2019-02-27T22:39:31.652Z,8.10
2019-02-27T22:42:02.554Z,8.00
2019-02-27T22:44:33.708Z,8.00
2019-02-27T22:47:04.583Z,7.90
2019-02-27T22:49:35.596Z,7.90
2019-02-27T22:52:06.265Z,7.90
2019-02-27T22:54:37.214Z,7.80
2019-02-27T22:57:08.013Z,7.80
2019-02-27T22:59:39.171Z,7.80
2019-02-27T23:02:10.512Z,7.80
2019-02-27T23:04:41.282Z,7.80
2019-02-27T23:07:11.940Z,7.90
2019-02-27T23:09:42.645Z,7.90
2019-02-27T23:12:13.871Z,7.90
2019-02-27T23:14:44.345Z,7.90
2019-02-27T23:17:15.549Z,7.80
2019-02-27T23:19:46.972Z,7.70
2019-02-27T23:22:17.655Z,7.60
2019-02-27T23:25:06.980Z,7.50
2019-02-27T23:27:37.484Z,7.50
2019-02-27T23:30:07.649Z,7.40
2019-02-27T23:32:38.593Z,7.40
2019-02-27T23:35:08.751Z,7.40
2019-02-27T23:37:39.283Z,7.40
2019-02-27T23:40:17.241Z,7.40
2019-02-27T23:42:44.377Z,7.40
2019-02-27T23:45:15.738Z,7.30
2019-02-27T23:47:46.539Z,7.30
2019-02-27T23:50:17.895Z,7.20
2019-02-27T23:52:48.431Z,7.20
2019-02-27T23:55:19.565Z,7.20
2019-02-27T23:57:50.511Z,7.20
